Time;durP1;ratioP1;P1;durP2;ratioP2;P2;SDS_P1;SDS_P2;PMS_P1;PMS_P2;Temp;Humidity;BMP_temperature;BMP_pressure;BME280_temperature;BME280_humidity;BME280_pressure;Samples;Min_cycle;Max_cycle;Signal;HPM_P1;HPM_P2
2021/09/23 00:01:26;;;;;;;0.80;0.80;;;21.70;50.20;;;25.64;33.49;101717.88;5114588;28;20174;-10
2021/09/23 00:04:04;;;;;;;0.82;0.82;;;21.80;50.20;;;25.67;33.54;101717.63;5114286;28;20052;-11
2021/09/23 00:06:31;;;;;;;0.63;0.63;;;21.70;50.20;;;25.65;33.51;101708.84;5114022;28;20079;-11
2021/09/23 00:08:57;;;;;;;0.85;0.85;;;21.70;50.30;;;25.65;33.61;101703.50;5114796;28;20048;-11
2021/09/23 00:11:22;;;;;;;0.80;0.80;;;21.70;50.30;;;25.66;33.57;101699.84;5094430;28;20052;-10
2021/09/23 00:13:48;;;;;;;0.70;0.70;;;21.70;50.30;;;25.66;33.47;101694.50;5114081;28;20058;-11
2021/09/23 00:16:14;;;;;;;1.08;0.80;;;21.70;50.30;;;25.66;33.52;101690.94;5114384;28;20044;-10
2021/09/23 00:18:40;;;;;;;0.55;0.55;;;21.70;50.30;;;25.65;33.52;101692.78;5095893;28;20126;-10
2021/09/23 00:21:06;;;;;;;1.45;0.80;;;21.70;50.30;;;25.65;33.42;101690.09;5114012;28;20491;-10
2021/09/23 00:23:33;;;;;;;1.15;1.02;;;21.70;50.30;;;25.65;33.47;101690.09;5114272;28;20441;-11
2021/09/23 00:25:59;;;;;;;0.73;0.73;;;21.70;50.40;;;25.65;33.61;101692.78;5113884;28;20403;-11
2021/09/23 00:28:24;;;;;;;0.88;0.70;;;21.70;50.30;;;25.65;33.56;101687.41;5095780;28;20047;-11
2021/09/23 00:30:50;;;;;;;0.90;0.90;;;21.70;50.20;;;25.64;33.49;101683.03;5113827;28;20108;-10
2021/09/23 00:33:17;;;;;;;1.00;0.90;;;21.70;50.20;;;25.63;33.59;101684.00;5095485;28;20047;-11
2021/09/23 00:35:42;;;;;;;0.98;0.80;;;21.70;50.30;;;25.65;33.58;101681.22;5113810;28;20184;-10
2021/09/23 00:38:08;;;;;;;0.73;0.70;;;21.70;50.30;;;25.62;33.61;101673.38;5113974;28;20044;-11
2021/09/23 00:40:34;;;;;;;1.10;0.82;;;21.70;50.30;;;25.62;33.68;101660.00;5113742;28;20040;-11
2021/09/23 00:43:01;;;;;;;0.77;0.77;;;21.70;50.30;;;25.64;33.61;101669.66;5112262;28;20483;-11
2021/09/23 00:45:27;;;;;;;1.30;0.60;;;21.70;50.20;;;25.65;33.70;101659.78;5113687;28;20396;-11
2021/09/23 00:47:54;;;;;;;1.23;0.90;;;21.70;50.20;;;25.63;33.62;101642.97;5095653;28;20533;-11
2021/09/23 00:50:20;;;;;;;1.02;0.90;;;21.70;50.30;;;25.62;33.57;101638.56;5111679;28;20440;-11
2021/09/23 00:52:48;;;;;;;0.93;0.90;;;21.70;50.30;;;25.64;33.53;101639.31;5095748;28;20047;-11
2021/09/23 00:55:18;;;;;;;0.80;0.80;;;21.70;50.20;;;25.64;33.55;101634.84;5095788;28;20070;-10
2021/09/23 00:57:45;;;;;;;0.75;0.75;;;21.70;50.30;;;25.63;33.48;101624.22;5112402;28;20051;-10
2021/09/23 01:00:13;;;;;;;0.85;0.70;;;21.70;50.20;;;25.63;33.63;101627.75;5095033;28;20046;-11
2021/09/23 01:02:58;;;;;;;0.80;0.80;;;21.70;50.20;;;25.63;33.53;101618.88;5095272;28;20042;-10
2021/09/23 01:05:24;;;;;;;0.70;0.70;;;21.70;50.20;;;25.62;33.60;101615.31;5111990;28;20047;-11
2021/09/23 01:07:50;;;;;;;0.93;0.90;;;21.70;50.10;;;25.63;33.68;101614.38;5111883;28;20043;-11
2021/09/23 01:10:19;;;;;;;0.70;0.70;;;21.80;50.10;;;25.63;33.62;101614.38;5111963;28;20464;-10
2021/09/23 01:12:46;;;;;;;0.63;0.60;;;21.80;50.10;;;25.65;33.60;101615.09;5095411;28;20551;-10
2021/09/23 01:15:15;;;;;;;0.70;0.70;;;21.80;50.10;;;25.62;33.57;101609.97;5094700;28;20040;-11
2021/09/23 01:17:44;;;;;;;0.75;0.70;;;21.70;50.10;;;25.65;33.50;101606.22;5092569;28;20130;-11
2021/09/23 01:20:12;;;;;;;1.00;0.80;;;21.70;50.10;;;25.63;33.47;101602.81;5094610;28;20055;-10
2021/09/23 01:22:38;;;;;;;0.80;0.70;;;21.70;50.20;;;25.63;33.57;101592.94;5111723;28;20051;-10
2021/09/23 01:25:18;;;;;;;0.70;0.70;;;21.70;50.20;;;25.61;33.58;101588.66;5112510;28;20368;-11
2021/09/23 01:27:45;;;;;;;0.70;0.70;;;21.70;50.10;;;25.60;33.49;101595.81;5093178;28;21211;-11
2021/09/23 01:30:17;;;;;;;0.95;0.90;;;21.80;50.20;;;25.61;33.48;101591.31;5092554;28;20048;-10
2021/09/23 01:32:46;;;;;;;0.68;0.68;;;21.70;50.10;;;25.62;33.47;101582.34;5078743;28;20073;-10
2021/09/23 01:35:14;;;;;;;0.70;0.70;;;21.70;50.30;;;25.63;33.57;101586.72;5094367;28;20138;-11
2021/09/23 01:37:41;;;;;;;0.75;0.75;;;21.70;50.30;;;25.62;33.40;101579.66;5111862;28;20074;-11
2021/09/23 01:40:10;;;;;;;0.70;0.70;;;21.70;50.30;;;25.61;33.64;101573.44;5111438;28;20044;-11
2021/09/23 01:42:37;;;;;;;1.08;0.80;;;21.70;50.20;;;25.61;33.65;101567.22;5095091;28;20128;-11
2021/09/23 01:45:05;;;;;;;0.60;0.60;;;21.70;50.20;;;25.60;33.51;101562.84;5109713;28;20495;-11
2021/09/23 01:47:37;;;;;;;0.73;0.73;;;21.70;50.10;;;25.62;33.59;101559.06;5095028;28;20051;-11
2021/09/23 01:50:04;;;;;;;0.77;0.70;;;21.70;50.10;;;25.60;33.62;101546.78;5109528;28;20481;-11
2021/09/23 01:52:33;;;;;;;0.80;0.70;;;21.70;50.10;;;25.58;33.36;101544.22;5111945;28;20464;-11
2021/09/23 01:55:17;;;;;;;0.60;0.60;;;21.80;50.10;;;25.62;33.69;101531.44;5111459;28;20047;-11
2021/09/23 01:57:45;;;;;;;0.77;0.77;;;21.70;50.10;;;25.60;33.62;101534.22;5111388;28;20056;-11
2021/09/23 02:00:12;;;;;;;0.80;0.80;;;21.70;50.10;;;25.61;33.68;101532.41;5111151;28;20054;-11
2021/09/23 02:02:42;;;;;;;0.77;0.77;;;21.70;50.10;;;25.60;33.55;101515.50;5097058;28;20486;-11
2021/09/23 02:05:27;;;;;;;0.70;0.70;;;21.70;50.10;;;25.56;33.75;101489.91;5116626;28;20046;-11
2021/09/23 02:07:53;;;;;;;0.80;0.80;;;21.70;50.10;;;25.59;33.46;101496.84;5098045;28;20051;-10
2021/09/23 02:10:19;;;;;;;0.82;0.82;;;21.70;50.10;;;25.59;33.47;101492.34;5114739;28;20051;-11
2021/09/23 02:12:45;;;;;;;1.05;0.98;;;21.70;50.00;;;25.59;33.65;101488.81;5114598;28;20050;-11
2021/09/23 02:15:15;;;;;;;0.90;0.82;;;21.70;50.10;;;25.58;33.63;101479.94;5114740;28;20079;-11
2021/09/23 02:17:41;;;;;;;0.93;0.90;;;21.70;50.10;;;25.58;33.71;101471.06;5113183;28;20097;-10
2021/09/23 02:20:12;;;;;;;0.80;0.80;;;21.70;50.10;;;25.60;33.69;101474.47;5115076;28;20096;-11
2021/09/23 02:22:46;;;;;;;1.15;1.05;;;21.70;50.00;;;25.61;33.56;101476.16;5114005;28;20058;-10
2021/09/23 02:25:12;;;;;;;0.70;0.70;;;21.70;50.10;;;25.58;33.67;101469.22;5113520;28;20075;-10
2021/09/23 02:27:39;;;;;;;1.27;0.80;;;21.70;50.10;;;25.60;33.55;101459.25;5097424;28;20448;-10
2021/09/23 02:30:07;;;;;;;0.70;0.70;;;21.70;50.10;;;25.58;33.73;101461.19;5097394;28;20130;-11
2021/09/23 02:32:34;;;;;;;0.60;0.60;;;21.70;50.10;;;25.60;33.45;101475.31;5116003;28;20060;-10
2021/09/23 02:35:01;;;;;;;0.57;0.50;;;21.70;50.10;;;25.59;33.70;101478.94;5097683;28;20395;-11
2021/09/23 02:37:27;;;;;;;0.70;0.70;;;21.70;50.20;;;25.58;33.60;101471.91;5114534;28;20167;-11
2021/09/23 02:39:53;;;;;;;0.75;0.75;;;21.70;50.10;;;25.60;33.74;101472.63;5114291;28;20047;-11
2021/09/23 02:42:19;;;;;;;0.70;0.70;;;21.70;50.10;;;25.58;33.71;101465.69;5097205;28;20096;-10
2021/09/23 02:44:45;;;;;;;0.60;0.60;;;21.80;50.10;;;25.59;33.70;101460.22;5114150;28;20058;-10
2021/09/23 02:47:11;;;;;;;0.80;0.73;;;21.70;50.10;;;25.60;33.55;101463.75;5114196;28;20052;-11
2021/09/23 02:49:37;;;;;;;1.08;0.95;;;21.70;50.10;;;25.60;33.64;101453.06;5097462;28;20047;-10
2021/09/23 02:52:03;;;;;;;0.80;0.80;;;21.70;50.20;;;25.59;33.61;101443.28;5096134;28;20377;-11
2021/09/23 02:54:29;;;;;;;1.00;0.90;;;21.70;50.20;;;25.58;33.45;101436.25;5097633;28;20046;-11
2021/09/23 02:56:55;;;;;;;1.25;0.77;;;21.70;50.20;;;25.59;33.64;101448.66;5113996;28;20399;-11
2021/09/23 02:59:21;;;;;;;0.63;0.63;;;21.70;50.30;;;25.57;33.70;101439.88;5097246;28;20456;-10
2021/09/23 03:01:46;;;;;;;0.70;0.70;;;21.60;50.30;;;25.59;33.66;101448.66;5113894;28;20551;-11
2021/09/23 03:04:14;;;;;;;0.90;0.90;;;21.70;50.30;;;25.60;33.62;101447.69;5113991;28;20044;-11
2021/09/23 03:06:39;;;;;;;0.70;0.70;;;21.70;50.20;;;25.59;33.83;101424.53;5113845;28;20043;-11
2021/09/23 03:09:08;;;;;;;0.95;0.90;;;21.70;50.20;;;25.58;33.50;101429.06;5113855;28;20070;-11
2021/09/23 03:11:35;;;;;;;0.80;0.80;;;21.70;50.20;;;25.60;33.65;101415.56;5097193;28;20134;-10
2021/09/23 03:14:01;;;;;;;0.80;0.75;;;21.70;50.20;;;25.58;33.53;101399.59;5113829;28;20051;-11
2021/09/23 03:16:27;;;;;;;0.88;0.82;;;21.70;50.20;;;25.57;33.61;101400.56;5096435;28;20044;-11
2021/09/23 03:18:53;;;;;;;0.70;0.70;;;21.70;50.20;;;25.57;33.70;101400.56;5113708;28;20387;-11
2021/09/23 03:21:19;;;;;;;1.48;0.80;;;21.70;50.30;;;25.58;33.76;101386.22;5113335;28;20047;-10
2021/09/23 03:23:46;;;;;;;1.05;0.95;;;21.70;50.30;;;25.58;33.61;101393.41;5096159;28;20128;-11
2021/09/23 03:26:12;;;;;;;0.70;0.70;;;21.70;50.30;;;25.58;33.65;101391.56;5095729;28;20059;-10
2021/09/23 03:28:39;;;;;;;0.75;0.70;;;21.60;50.30;;;25.59;33.69;101398.63;5096607;28;20075;-11
2021/09/23 03:31:06;;;;;;;0.85;0.80;;;21.60;50.40;;;25.60;33.54;101396.81;5114518;28;20043;-11
2021/09/23 03:33:31;;;;;;;0.80;0.80;;;21.60;50.50;;;25.59;33.72;101398.63;5113214;28;20051;-11
2021/09/23 03:35:57;;;;;;;0.65;0.65;;;21.60;50.60;;;25.60;33.64;101391.47;5114987;28;20451;-11
2021/09/23 03:38:23;;;;;;;1.08;0.70;;;21.60;50.50;;;25.61;33.60;101391.34;5096377;28;20050;-11
2021/09/23 03:40:50;;;;;;;0.80;0.80;;;21.60;50.50;;;25.61;33.62;101385.13;5114552;28;20052;-10
2021/09/23 03:43:19;;;;;;;0.80;0.80;;;21.60;50.40;;;25.61;33.75;101383.31;5114688;28;20105;-11
2021/09/23 03:45:49;;;;;;;1.17;1.00;;;21.60;50.50;;;25.61;33.72;101377.09;5096279;28;20510;-10
2021/09/23 03:48:15;;;;;;;0.75;0.75;;;21.60;50.60;;;25.60;33.75;101368.19;5096271;28;20047;-11
2021/09/23 03:50:41;;;;;;;1.13;0.80;;;21.60;50.60;;;25.63;33.84;101375.16;5111455;28;20102;-10
2021/09/23 03:53:07;;;;;;;0.70;0.70;;;21.70;50.30;;;25.63;33.62;101367.97;5113222;28;20039;-11
2021/09/23 03:55:33;;;;;;;1.08;0.98;;;21.70;50.00;;;25.65;33.76;101366.03;5096024;28;20127;-11
2021/09/23 03:57:59;;;;;;;1.10;0.80;;;21.80;49.90;;;25.67;33.55;101366.78;5113222;28;20051;-11
2021/09/23 04:00:26;;;;;;;0.63;0.63;;;21.90;49.80;;;25.66;33.67;101353.50;5093998;28;20476;-10
2021/09/23 04:02:52;;;;;;;1.00;0.90;;;21.90;49.80;;;25.67;33.57;101353.38;5095944;28;20130;-11
2021/09/23 04:05:18;;;;;;;0.75;0.75;;;21.90;49.80;;;25.68;33.61;101343.53;5095933;28;20495;-11
2021/09/23 04:07:46;;;;;;;0.80;0.80;;;21.90;49.60;;;25.72;33.51;101344.16;5095980;28;20518;-11
2021/09/23 04:10:11;;;;;;;0.80;0.80;;;21.90;49.70;;;25.67;33.49;101340.00;5111208;28;20069;-10
2021/09/23 04:12:38;;;;;;;0.70;0.70;;;21.90;49.70;;;25.70;33.52;101341.59;5112785;28;20048;-11
2021/09/23 04:15:05;;;;;;;0.75;0.70;;;21.80;50.00;;;25.70;33.53;101331.72;5095743;28;20048;-10
2021/09/23 04:17:31;;;;;;;0.70;0.70;;;21.80;50.10;;;25.72;33.62;101320.06;5096289;28;20039;-10
2021/09/23 04:19:57;;;;;;;0.70;0.70;;;21.80;50.20;;;25.69;33.52;101321.13;5093790;28;20078;-11
2021/09/23 04:22:23;;;;;;;0.80;0.80;;;21.70;50.10;;;25.73;33.54;101319.06;5095740;28;20046;-11
2021/09/23 04:24:49;;;;;;;0.70;0.70;;;21.80;50.20;;;25.74;33.45;101315.44;5095185;28;20048;-11
2021/09/23 04:27:15;;;;;;;0.80;0.80;;;21.80;50.00;;;25.70;33.61;101307.63;5110792;28;20147;-11
2021/09/23 04:29:43;;;;;;;0.80;0.70;;;21.80;50.00;;;25.72;33.38;101307.50;5095968;28;20044;-11
2021/09/23 04:32:14;;;;;;;0.70;0.70;;;21.70;50.00;;;25.73;33.47;101303.00;5114265;28;20047;-10
2021/09/23 04:34:40;;;;;;;0.70;0.70;;;21.80;50.00;;;25.73;33.32;101314.59;5112426;28;20048;-10
2021/09/23 04:37:08;;;;;;;0.73;0.70;;;21.70;50.20;;;25.72;33.47;101318.22;5094587;28;20052;-11
2021/09/23 04:39:34;;;;;;;0.90;0.70;;;21.70;50.40;;;25.69;33.62;101307.75;5112392;28;20476;-11
2021/09/23 04:41:59;;;;;;;1.77;1.17;;;21.60;50.40;;;25.72;33.53;101304.00;5095863;28;20074;-10
2021/09/23 04:44:26;;;;;;;0.70;0.70;;;21.60;50.50;;;25.69;33.39;101297.03;5094999;28;20048;-10
2021/09/23 04:46:52;;;;;;;0.80;0.80;;;21.60;50.40;;;25.68;33.45;101295.34;5095169;28;20108;-11
2021/09/23 04:49:18;;;;;;;0.65;0.65;;;21.60;50.50;;;25.68;33.60;101285.47;5112274;28;20388;-11
2021/09/23 04:51:44;;;;;;;1.20;0.70;;;21.70;50.40;;;25.69;33.38;101267.56;5095174;28;20092;-11
2021/09/23 04:54:10;;;;;;;0.90;0.90;;;21.70;50.30;;;25.67;33.47;101258.81;5111303;28;20048;-11
2021/09/23 04:56:38;;;;;;;0.98;0.80;;;21.70;50.10;;;25.69;33.47;101271.13;5112131;28;20380;-10
2021/09/23 04:59:04;;;;;;;0.70;0.70;;;21.80;50.00;;;25.69;33.43;101270.25;5094996;28;20047;-10
2021/09/23 05:01:31;;;;;;;0.98;0.98;;;21.80;50.00;;;25.67;33.61;101259.66;5111456;28;20117;-11
2021/09/23 05:03:58;;;;;;;1.10;1.00;;;21.80;50.00;;;25.68;33.45;101258.69;5110898;28;20074;-10
2021/09/23 05:06:24;;;;;;;0.90;0.85;;;21.80;50.00;;;25.66;33.46;101241.91;5109964;28;20492;-10
2021/09/23 05:08:56;;;;;;;0.90;0.90;;;21.80;49.90;;;25.69;33.50;101238.09;5095096;28;20047;-11
2021/09/23 05:11:25;;;;;;;1.38;1.02;;;21.80;49.90;;;25.68;33.50;101231.91;5113286;28;20059;-11
2021/09/23 05:13:51;;;;;;;0.73;0.73;;;21.80;49.80;;;25.68;33.54;101234.59;5113174;28;20563;-11
2021/09/23 05:16:21;;;;;;;0.85;0.80;;;21.80;50.00;;;25.68;33.40;101229.22;5112783;28;20051;-11
2021/09/23 05:18:47;;;;;;;0.82;0.82;;;21.80;50.00;;;25.67;33.56;101211.44;5113229;28;20518;-11
2021/09/23 05:21:13;;;;;;;0.88;0.77;;;21.80;50.00;;;25.65;33.45;101210.72;5113168;28;20483;-11
2021/09/23 05:23:38;;;;;;;1.00;0.90;;;21.80;50.00;;;25.67;33.31;101216.78;5113099;28;20043;-11
2021/09/23 05:26:05;;;;;;;0.93;0.93;;;21.80;50.00;;;25.65;33.50;101216.06;5112994;28;20055;-10
2021/09/23 05:28:31;;;;;;;1.00;1.00;;;21.80;50.00;;;25.66;33.29;101225.81;5113357;28;20055;-10
2021/09/23 05:30:58;;;;;;;0.95;0.88;;;21.80;50.00;;;25.67;33.51;101227.50;5112605;28;20052;-10
2021/09/23 05:33:23;;;;;;;0.88;0.88;;;21.80;50.10;;;25.66;33.57;101233.84;5112998;28;20051;-11
2021/09/23 05:35:49;;;;;;;0.85;0.85;;;21.70;50.20;;;25.68;33.51;101237.25;5112762;28;20048;-11
2021/09/23 05:38:15;;;;;;;0.82;0.82;;;21.80;50.10;;;25.65;33.54;101231.28;5115993;28;20130;-11
2021/09/23 05:40:41;;;;;;;1.15;0.88;;;21.80;50.00;;;25.66;33.42;101227.63;5098075;28;20043;-10
2021/09/23 05:43:07;;;;;;;0.98;0.80;;;21.80;50.00;;;25.68;33.43;101239.94;5114020;28;20403;-11
2021/09/23 05:45:33;;;;;;;0.70;0.70;;;21.70;50.00;;;25.66;33.54;101232.97;5116531;28;20051;-11
2021/09/23 05:47:59;;;;;;;0.73;0.73;;;21.80;50.00;;;25.68;33.57;101239.09;5115234;28;20047;-11
2021/09/23 05:50:25;;;;;;;0.80;0.80;;;21.70;50.10;;;25.65;33.44;101244.69;5116274;28;20100;-10
2021/09/23 05:52:52;;;;;;;0.80;0.80;;;21.70;50.10;;;25.66;33.45;101249.94;5116421;28;20441;-11
2021/09/23 05:55:18;;;;;;;0.70;0.70;;;21.80;50.00;;;25.65;33.57;101223.25;5116383;28;20051;-10
2021/09/23 05:57:43;;;;;;;0.75;0.75;;;21.80;50.00;;;25.70;33.55;101231.78;5116191;28;20142;-11
2021/09/23 06:00:13;;;;;;;0.65;0.65;;;21.80;49.90;;;25.69;33.57;101222.91;5116339;28;20067;-10
2021/09/23 06:02:40;;;;;;;1.30;0.80;;;21.80;49.90;;;25.67;33.44;101208.75;5116049;28;20043;-11
2021/09/23 06:05:08;;;;;;;0.80;0.80;;;21.80;50.00;;;25.69;33.46;101198.81;5116515;28;20054;-11
2021/09/23 06:07:33;;;;;;;1.00;0.90;;;21.80;49.90;;;25.69;33.45;101201.50;5116053;28;20391;-11
2021/09/23 06:09:59;;;;;;;0.90;0.90;;;21.80;49.90;;;25.68;33.61;101212.31;5115922;28;20040;-11
2021/09/23 06:12:25;;;;;;;1.20;1.00;;;21.80;49.90;;;25.69;33.43;101201.50;5116031;28;20047;-10
2021/09/23 06:14:51;;;;;;;0.73;0.73;;;21.80;50.00;;;25.69;33.42;101192.56;5116386;28;20357;-11
2021/09/23 06:17:17;;;;;;;0.80;0.80;;;21.80;50.00;;;25.67;33.51;101181.97;5115543;28;20066;-15
2021/09/23 06:19:43;;;;;;;0.90;0.90;;;21.80;50.10;;;25.66;33.47;101177.63;5115127;28;20454;-11
2021/09/23 06:22:09;;;;;;;0.98;0.77;;;21.80;50.10;;;25.68;33.38;101177.50;5097557;28;20119;-11
2021/09/23 06:24:35;;;;;;;1.23;1.10;;;21.80;50.10;;;25.69;33.45;101172.03;5116160;28;20070;-11
2021/09/23 06:27:02;;;;;;;0.90;0.70;;;21.70;50.10;;;25.68;33.57;101172.16;5113712;28;20056;-11
2021/09/23 06:29:28;;;;;;;0.70;0.70;;;21.70;50.10;;;25.69;33.36;101165.78;5115631;28;20120;-11
2021/09/23 06:31:54;;;;;;;0.85;0.85;;;21.80;50.10;;;25.68;33.60;101153.41;5115796;28;20498;-11
2021/09/23 06:34:21;;;;;;;0.95;0.80;;;21.70;50.10;;;25.68;33.56;101151.56;5097452;28;20051;-11
2021/09/23 06:36:48;;;;;;;0.68;0.68;;;21.70;50.10;;;25.69;33.46;101153.28;5097223;28;20123;-12
2021/09/23 06:39:16;;;;;;;1.02;0.90;;;21.70;50.00;;;25.69;33.46;101136.34;5115744;28;20050;-12
2021/09/23 06:41:41;;;;;;;0.90;0.90;;;21.80;50.00;;;25.69;33.50;101133.66;5115594;28;20403;-11
2021/09/23 06:44:09;;;;;;;0.80;0.80;;;21.80;49.90;;;25.72;33.46;101129.91;5115431;28;20048;-11
2021/09/23 06:46:35;;;;;;;0.80;0.80;;;21.80;49.90;;;25.71;33.38;101129.06;5115381;28;20067;-12
2021/09/23 06:49:01;;;;;;;0.82;0.82;;;21.80;50.00;;;25.72;33.40;101128.06;5115406;28;20112;-12
2021/09/23 06:51:27;;;;;;;0.80;0.80;;;21.80;50.00;;;25.71;33.47;101121.03;5115475;28;20051;-11
2021/09/23 06:53:54;;;;;;;0.80;0.80;;;21.80;50.00;;;25.70;33.50;101113.97;5115622;28;20048;-11
2021/09/23 06:56:20;;;;;;;0.80;0.80;;;21.80;50.00;;;25.72;33.52;101108.47;5114895;28;20449;-12
2021/09/23 06:58:46;;;;;;;0.88;0.88;;;21.80;50.00;;;25.75;33.64;101105.56;5115195;28;20047;-12
2021/09/23 07:01:30;;;;;;;0.85;0.80;;;21.80;50.00;;;25.70;33.35;101090.69;5115662;28;20415;-12
2021/09/23 07:04:24;;;;;;;0.70;0.70;;;21.80;49.90;;;25.73;33.42;101105.69;5097013;28;20391;-12
2021/09/23 07:06:56;;;;;;;0.98;0.98;;;21.80;49.80;;;25.72;33.40;101087.06;5115195;28;20524;-12
2021/09/23 07:09:28;;;;;;;0.95;0.95;;;21.90;49.80;;;25.75;33.46;101092.19;5096798;28;20039;-12
2021/09/23 07:11:58;;;;;;;0.80;0.80;;;21.90;49.80;;;25.77;33.42;101079.50;5113750;28;20079;-12
2021/09/23 07:14:24;;;;;;;0.90;0.90;;;21.80;49.80;;;25.78;33.53;101078.53;5113711;28;20048;-12
2021/09/23 07:16:50;;;;;;;0.80;0.80;;;21.90;49.80;;;25.77;33.42;101066.97;5114837;28;20082;-11
2021/09/23 07:19:16;;;;;;;1.00;0.90;;;21.90;49.80;;;25.77;33.40;101075.00;5115130;28;20048;-11
2021/09/23 07:21:42;;;;;;;1.05;0.90;;;21.90;49.80;;;25.78;33.49;101091.94;5114825;28;20058;-12
2021/09/23 07:24:08;;;;;;;1.20;1.10;;;21.90;49.80;;;25.81;33.31;101092.53;5113661;28;20072;-12
2021/09/23 07:26:34;;;;;;;1.02;0.93;;;21.90;49.80;;;25.81;33.37;101099.72;5096665;28;20158;-12
2021/09/23 07:29:00;;;;;;;0.80;0.80;;;21.90;49.80;;;25.81;33.40;101081.81;5114736;28;20523;-12
2021/09/23 07:31:26;;;;;;;0.93;0.90;;;21.90;49.70;;;25.82;33.15;101071.97;5095191;28;20052;-11
2021/09/23 07:33:52;;;;;;;1.05;0.95;;;22.00;49.60;;;25.87;33.41;101075.13;5114762;28;20051;-12
2021/09/23 07:36:19;;;;;;;1.35;0.95;;;21.90;49.60;;;25.84;33.19;101061.97;5114378;28;20047;-12
2021/09/23 07:38:45;;;;;;;0.80;0.80;;;21.90;49.60;;;25.88;33.31;101069.66;5114516;28;20089;-12
2021/09/23 07:41:12;;;;;;;0.70;0.70;;;22.00;49.60;;;25.89;33.31;101060.66;5111581;28;20052;-12
2021/09/23 07:43:38;;;;;;;1.02;1.00;;;22.00;49.50;;;25.91;33.34;101049.81;5096212;28;20051;-12
2021/09/23 07:46:03;;;;;;;0.90;0.70;;;22.10;49.40;;;25.91;33.27;101052.50;5113229;28;20051;-11
2021/09/23 07:48:29;;;;;;;0.80;0.80;;;22.00;49.30;;;25.93;33.36;101042.50;5096230;28;20047;-11
2021/09/23 07:50:58;;;;;;;0.98;0.82;;;22.10;49.30;;;25.92;33.26;101048.81;5079283;28;20048;-11
2021/09/23 07:53:28;;;;;;;1.10;1.00;;;22.10;49.30;;;25.92;33.21;101048.81;5113592;28;20130;-12
2021/09/23 07:55:54;;;;;;;1.10;1.00;;;22.10;49.30;;;25.96;33.20;101058.34;5079094;28;20495;-12
2021/09/23 07:58:20;;;;;;;0.73;0.73;;;22.10;49.30;;;25.96;33.13;101060.16;5096519;28;20070;-12
2021/09/23 08:00:46;;;;;;;1.58;0.90;;;22.10;49.30;;;25.99;33.24;101060.75;5095634;28;20047;-12
2021/09/23 08:03:12;;;;;;;0.90;0.90;;;22.10;49.30;;;25.98;33.09;101050.19;5113441;28;20498;-11
2021/09/23 08:05:38;;;;;;;0.88;0.80;;;22.10;49.20;;;26.02;33.21;101051.63;5095873;28;20039;-11
2021/09/23 08:08:05;;;;;;;1.40;1.08;;;22.10;49.20;;;26.02;33.04;101059.69;5111941;28;20044;-11
2021/09/23 08:10:31;;;;;;;1.10;0.93;;;22.20;49.20;;;26.01;33.25;101052.59;5095847;28;20051;-11
2021/09/23 08:12:58;;;;;;;0.90;0.90;;;22.10;49.20;;;26.03;33.09;101066.75;5113240;28;20051;-11
2021/09/23 08:15:24;;;;;;;0.98;0.98;;;22.10;49.20;;;26.05;33.03;101054.09;5112746;28;20058;-11
2021/09/23 08:18:20;;;;;;;1.33;0.90;;;22.20;49.30;;;26.03;33.01;101062.25;5095765;28;20056;-11
2021/09/23 08:20:50;;;;;;;;;;;22.10;49.20;;;26.20;33.00;101054.66;5113465;28;20051;-11
2021/09/23 08:23:18;;;;;;;0.80;0.80;;;22.20;49.20;;;26.09;32.86;101052.84;5112664;28;19920;-11
2021/09/23 08:25:45;;;;;;;0.85;0.85;;;22.20;49.10;;;26.07;33.00;101046.75;5112629;28;20071;-11
2021/09/23 08:28:12;;;;;;;0.73;0.73;;;22.20;49.20;;;26.04;33.00;101038.97;5095666;28;20051;-11
2021/09/23 08:30:41;;;;;;;1.08;0.98;;;22.20;49.20;;;26.03;33.06;101029.25;5095457;28;20056;-11
2021/09/23 08:33:06;;;;;;;1.15;1.05;;;22.20;49.10;;;26.04;32.92;101037.16;5113836;28;20047;-11
2021/09/23 08:35:32;;;;;;;1.25;1.00;;;22.20;49.20;;;26.02;32.87;101008.78;5095385;28;20399;-11
2021/09/23 08:38:01;;;;;;;1.30;1.05;;;22.20;49.10;;;26.02;32.89;101020.34;5112532;28;20092;-11
2021/09/23 08:40:27;;;;;;;0.73;0.73;;;22.20;49.10;;;26.02;32.89;101012.28;5112646;28;20051;-11
2021/09/23 08:42:53;;;;;;;0.80;0.80;;;22.10;49.20;;;26.00;32.98;101014.25;5114151;28;20047;-11
2021/09/23 08:45:21;;;;;;;1.25;1.00;;;22.10;49.30;;;25.99;32.98;101001.81;5095287;28;20043;-11
2021/09/23 08:47:47;;;;;;;1.20;1.10;;;22.00;49.40;;;25.99;33.04;101004.50;5112277;28;20050;-11
2021/09/23 08:50:15;;;;;;;0.93;0.82;;;22.10;49.30;;;25.95;33.06;100995.03;5112029;28;20189;-11
2021/09/23 08:52:45;;;;;;;1.20;1.10;;;22.10;49.40;;;25.96;33.04;100988.69;5095224;28;20498;-11
2021/09/23 08:55:30;;;;;;;1.10;0.95;;;22.10;49.40;;;25.98;33.06;100996.63;5095181;28;20887;-11
2021/09/23 08:58:08;;;;;;;1.75;0.80;;;22.10;49.40;;;25.95;33.01;100989.66;5094003;28;20048;-11
2021/09/23 09:00:37;;;;;;;1.38;1.10;;;22.00;49.50;;;25.93;33.10;100980.88;5114138;28;20421;-11
2021/09/23 09:03:06;;;;;;;1.10;0.82;;;22.00;49.50;;;25.96;33.06;100980.66;5095536;28;20044;-11
2021/09/23 09:05:55;;;;;;;1.30;1.10;;;22.00;49.50;;;25.96;33.16;100979.78;5095428;28;20062;-11
2021/09/23 09:08:50;;;;;;;1.15;1.05;;;22.00;49.60;;;25.97;32.96;100982.34;5095035;28;20051;-11
2021/09/23 09:11:20;;;;;;;1.10;1.00;;;22.00;49.60;;;25.96;33.07;100980.66;5093010;28;20480;-11
2021/09/23 09:13:49;;;;;;;0.93;0.93;;;22.00;49.60;;;25.96;33.04;100982.47;5111288;28;20117;-11
2021/09/23 09:16:19;;;;;;;1.10;1.00;;;21.90;49.60;;;25.93;33.06;100982.69;5094203;28;20048;-11
2021/09/23 09:18:47;;;;;;;1.60;1.00;;;22.00;49.60;;;25.95;33.00;100976.28;5094203;28;20070;-11
2021/09/23 09:21:17;;;;;;;0.70;0.70;;;22.00;49.60;;;25.94;33.04;100973.69;5110450;28;20044;-11
2021/09/23 09:23:51;;;;;;;1.15;1.00;;;22.00;49.50;;;25.91;33.11;100964.09;5113103;28;20047;-11
2021/09/23 09:26:33;;;;;;;0.95;0.80;;;22.00;49.50;;;25.91;33.11;100963.22;5093991;28;20056;-11
2021/09/23 09:29:04;;;;;;;0.82;0.82;;;22.00;49.50;;;25.93;32.99;100970.16;5093155;28;20407;-11
2021/09/23 09:31:30;;;;;;;0.70;0.70;;;22.00;49.50;;;25.93;33.13;100966.59;5093047;28;20052;-11
2021/09/23 09:34:00;;;;;;;0.82;0.80;;;22.00;49.50;;;25.95;33.21;100972.72;5094530;28;20043;-11
2021/09/23 09:36:51;;;;;;;1.27;0.95;;;22.00;49.40;;;25.93;33.08;100951.41;5091348;28;20551;-11
2021/09/23 09:39:23;;;;;;;1.10;0.95;;;22.00;49.40;;;25.93;33.12;100955.91;5094505;28;20050;-11
2021/09/23 09:41:53;;;;;;;0.90;0.90;;;22.00;49.50;;;25.91;33.11;100944.47;5111994;28;20466;-11
2021/09/23 09:44:20;;;;;;;0.80;0.80;;;22.00;49.50;;;25.94;33.15;100942.38;5093325;28;20040;-11
2021/09/23 09:46:54;;;;;;;1.58;1.08;;;22.00;49.50;;;25.93;33.11;100934.47;5094427;28;20076;-11
2021/09/23 09:49:24;;;;;;;1.42;1.15;;;22.00;49.60;;;25.94;33.30;100917.44;5094225;28;20080;-11
2021/09/23 09:51:58;;;;;;;1.10;0.98;;;22.00;49.50;;;25.95;33.02;100919.13;5110493;28;20551;-11
2021/09/23 09:54:25;;;;;;;1.63;1.00;;;22.00;49.50;;;25.94;33.16;100910.22;5094102;28;20082;-11
2021/09/23 09:57:00;;;;;;;0.73;0.73;;;22.10;49.40;;;25.94;33.11;100904.88;5094605;28;20403;-11
2021/09/23 09:59:28;;;;;;;0.90;0.90;;;22.10;49.40;;;25.95;33.18;100903.94;5094462;28;20071;-11
2021/09/23 10:01:57;;;;;;;1.13;0.90;;;22.10;49.30;;;25.95;33.10;100890.53;5110864;28;20052;-11
2021/09/23 10:04:27;;;;;;;1.20;1.10;;;22.10;49.30;;;25.95;33.08;100871.78;5112539;28;20051;-11
2021/09/23 10:06:58;;;;;;;0.95;0.90;;;22.10;49.30;;;25.96;33.09;100868.16;5094313;28;20075;-11
2021/09/23 10:09:26;;;;;;;0.93;0.88;;;22.10;49.30;;;25.99;33.14;100865.19;5092950;28;20135;-12
2021/09/23 10:11:53;;;;;;;1.25;1.10;;;22.10;49.30;;;26.01;33.02;100857.88;5094583;28;20054;-11
2021/09/23 10:14:19;;;;;;;1.20;1.05;;;22.10;49.20;;;26.03;32.91;100863.13;5075210;28;20178;-11
2021/09/23 10:16:47;;;;;;;1.00;0.90;;;22.10;49.20;;;26.04;33.06;100854.09;5076790;28;20044;-11